sensor_id;sensor_type;location;lat;lon;timestamp;temperature;humidity
18281;DHT22;9266;51.132;17.062;2022-08-30T00:01:30;14.60;99.90
18281;DHT22;9266;51.132;17.062;2022-08-30T00:03:56;14.60;99.90
18281;DHT22;9266;51.132;17.062;2022-08-30T00:06:25;14.60;99.90
18281;DHT22;9266;51.132;17.062;2022-08-30T00:08:53;14.50;99.90
18281;DHT22;9266;51.132;17.062;2022-08-30T00:11:22;14.50;99.90
18281;DHT22;9266;51.132;17.062;2022-08-30T00:13:51;14.50;99.90
18281;DHT22;9266;51.132;17.062;2022-08-30T00:16:19;14.50;99.90
18281;DHT22;9266;51.132;17.062;2022-08-30T00:18:48;14.40;99.90
18281;DHT22;9266;51.132;17.062;2022-08-30T00:21:15;14.30;99.90
18281;DHT22;9266;51.132;17.062;2022-08-30T00:23:42;14.20;99.90
18281;DHT22;9266;51.132;17.062;2022-08-30T00:26:10;14.20;99.90
18281;DHT22;9266;51.132;17.062;2022-08-30T00:28:37;14.20;99.90
18281;DHT22;9266;51.132;17.062;2022-08-30T00:31:05;14.30;99.90
18281;DHT22;9266;51.132;17.062;2022-08-30T00:33:32;14.40;99.90
18281;DHT22;9266;51.132;17.062;2022-08-30T00:36:00;14.30;99.90
18281;DHT22;9266;51.132;17.062;2022-08-30T00:38:27;14.30;99.90
18281;DHT22;9266;51.132;17.062;2022-08-30T00:40:54;14.30;99.90
18281;DHT22;9266;51.132;17.062;2022-08-30T00:43:24;14.30;99.90
18281;DHT22;9266;51.132;17.062;2022-08-30T00:45:53;14.40;99.90
18281;DHT22;9266;51.132;17.062;2022-08-30T00:48:20;14.40;99.90
18281;DHT22;9266;51.132;17.062;2022-08-30T00:50:50;14.40;99.90
18281;DHT22;9266;51.132;17.062;2022-08-30T00:53:22;14.40;99.90
18281;DHT22;9266;51.132;17.062;2022-08-30T00:55:52;14.40;99.90
18281;DHT22;9266;51.132;17.062;2022-08-30T00:58:25;14.30;99.90
18281;DHT22;9266;51.132;17.062;2022-08-30T01:00:54;14.30;99.90
18281;DHT22;9266;51.132;17.062;2022-08-30T01:03:23;14.30;99.90
18281;DHT22;9266;51.132;17.062;2022-08-30T01:05:50;14.20;99.90
18281;DHT22;9266;51.132;17.062;2022-08-30T01:08:20;14.20;99.90
18281;DHT22;9266;51.132;17.062;2022-08-30T01:10:47;14.20;99.90
18281;DHT22;9266;51.132;17.062;2022-08-30T01:13:16;14.20;99.90
18281;DHT22;9266;51.132;17.062;2022-08-30T01:15:43;14.10;99.90
18281;DHT22;9266;51.132;17.062;2022-08-30T01:18:12;14.20;99.90
18281;DHT22;9266;51.132;17.062;2022-08-30T01:20:44;14.20;99.90
18281;DHT22;9266;51.132;17.062;2022-08-30T01:23:17;14.20;99.90
18281;DHT22;9266;51.132;17.062;2022-08-30T01:25:47;14.20;99.90
18281;DHT22;9266;51.132;17.062;2022-08-30T01:28:17;14.20;99.90
18281;DHT22;9266;51.132;17.062;2022-08-30T01:30:46;14.20;99.90
18281;DHT22;9266;51.132;17.062;2022-08-30T01:33:13;14.20;99.90
18281;DHT22;9266;51.132;17.062;2022-08-30T01:35:45;14.20;99.90
18281;DHT22;9266;51.132;17.062;2022-08-30T01:38:15;14.20;99.90
18281;DHT22;9266;51.132;17.062;2022-08-30T01:40:44;14.20;99.90
18281;DHT22;9266;51.132;17.062;2022-08-30T01:43:13;14.20;99.90
18281;DHT22;9266;51.132;17.062;2022-08-30T01:45:40;14.10;99.90
18281;DHT22;9266;51.132;17.062;2022-08-30T01:48:08;14.10;99.90
18281;DHT22;9266;51.132;17.062;2022-08-30T01:50:37;14.10;99.90
18281;DHT22;9266;51.132;17.062;2022-08-30T01:53:05;14.10;99.90
18281;DHT22;9266;51.132;17.062;2022-08-30T01:55:33;14.10;99.90
18281;DHT22;9266;51.132;17.062;2022-08-30T01:58:02;14.10;99.90
18281;DHT22;9266;51.132;17.062;2022-08-30T02:00:29;14.20;99.90
18281;DHT22;9266;51.132;17.062;2022-08-30T02:02:57;14.10;99.90
18281;DHT22;9266;51.132;17.062;2022-08-30T02:05:24;14.10;99.90
18281;DHT22;9266;51.132;17.062;2022-08-30T02:07:51;14.20;99.90
18281;DHT22;9266;51.132;17.062;2022-08-30T02:10:18;14.10;99.90
18281;DHT22;9266;51.132;17.062;2022-08-30T02:12:46;14.00;99.90
18281;DHT22;9266;51.132;17.062;2022-08-30T02:15:19;14.00;99.90
18281;DHT22;9266;51.132;17.062;2022-08-30T02:17:46;14.10;99.90
18281;DHT22;9266;51.132;17.062;2022-08-30T02:20:13;14.20;99.90
18281;DHT22;9266;51.132;17.062;2022-08-30T02:22:40;14.30;99.90
18281;DHT22;9266;51.132;17.062;2022-08-30T02:25:08;14.50;99.90
18281;DHT22;9266;51.132;17.062;2022-08-30T02:27:35;14.50;99.90
18281;DHT22;9266;51.132;17.062;2022-08-30T02:30:05;14.70;99.90
18281;DHT22;9266;51.132;17.062;2022-08-30T02:32:33;14.80;99.90
18281;DHT22;9266;51.132;17.062;2022-08-30T02:35:00;14.90;99.90
18281;DHT22;9266;51.132;17.062;2022-08-30T02:37:27;14.90;99.90
18281;DHT22;9266;51.132;17.062;2022-08-30T02:39:54;15.00;99.90
18281;DHT22;9266;51.132;17.062;2022-08-30T02:42:21;15.10;99.90
18281;DHT22;9266;51.132;17.062;2022-08-30T02:44:48;15.20;99.90
18281;DHT22;9266;51.132;17.062;2022-08-30T02:47:16;15.20;99.90
18281;DHT22;9266;51.132;17.062;2022-08-30T02:49:43;15.20;99.90
18281;DHT22;9266;51.132;17.062;2022-08-30T02:52:11;15.30;99.90
18281;DHT22;9266;51.132;17.062;2022-08-30T02:54:40;15.30;99.90
18281;DHT22;9266;51.132;17.062;2022-08-30T02:57:10;15.30;99.90
18281;DHT22;9266;51.132;17.062;2022-08-30T02:59:38;15.30;99.90
18281;DHT22;9266;51.132;17.062;2022-08-30T03:02:08;15.30;99.90
18281;DHT22;9266;51.132;17.062;2022-08-30T03:04:37;15.30;99.90
18281;DHT22;9266;51.132;17.062;2022-08-30T03:07:04;15.20;99.90
18281;DHT22;9266;51.132;17.062;2022-08-30T03:09:33;15.20;99.90
18281;DHT22;9266;51.132;17.062;2022-08-30T03:12:00;15.20;99.90
18281;DHT22;9266;51.132;17.062;2022-08-30T03:14:27;15.10;99.90
18281;DHT22;9266;51.132;17.062;2022-08-30T03:16:54;15.20;99.90
18281;DHT22;9266;51.132;17.062;2022-08-30T03:19:21;15.20;99.90
18281;DHT22;9266;51.132;17.062;2022-08-30T03:21:51;15.20;99.90
18281;DHT22;9266;51.132;17.062;2022-08-30T03:24:18;15.30;99.90
18281;DHT22;9266;51.132;17.062;2022-08-30T03:26:45;15.30;99.90
18281;DHT22;9266;51.132;17.062;2022-08-30T03:29:12;15.30;99.90
18281;DHT22;9266;51.132;17.062;2022-08-30T03:31:39;15.40;99.90
18281;DHT22;9266;51.132;17.062;2022-08-30T03:34:06;15.40;99.90
18281;DHT22;9266;51.132;17.062;2022-08-30T03:36:36;15.40;99.90
18281;DHT22;9266;51.132;17.062;2022-08-30T03:39:06;15.40;99.90
18281;DHT22;9266;51.132;17.062;2022-08-30T03:41:33;15.40;99.90
18281;DHT22;9266;51.132;17.062;2022-08-30T03:44:01;15.30;99.90
18281;DHT22;9266;51.132;17.062;2022-08-30T03:46:28;15.30;99.90
18281;DHT22;9266;51.132;17.062;2022-08-30T03:48:55;15.30;99.90
18281;DHT22;9266;51.132;17.062;2022-08-30T03:51:22;15.20;99.90
18281;DHT22;9266;51.132;17.062;2022-08-30T03:53:50;15.20;99.90
18281;DHT22;9266;51.132;17.062;2022-08-30T03:56:18;15.20;99.90
18281;DHT22;9266;51.132;17.062;2022-08-30T03:58:45;15.20;99.90
18281;DHT22;9266;51.132;17.062;2022-08-30T04:01:12;15.20;99.90
18281;DHT22;9266;51.132;17.062;2022-08-30T04:03:39;15.10;99.90
18281;DHT22;9266;51.132;17.062;2022-08-30T04:06:06;15.00;99.90
18281;DHT22;9266;51.132;17.062;2022-08-30T04:08:34;15.00;99.90
18281;DHT22;9266;51.132;17.062;2022-08-30T04:11:01;15.00;99.90
18281;DHT22;9266;51.132;17.062;2022-08-30T04:13:29;14.90;99.90
18281;DHT22;9266;51.132;17.062;2022-08-30T04:15:56;15.00;99.90
18281;DHT22;9266;51.132;17.062;2022-08-30T04:18:24;15.00;99.90
18281;DHT22;9266;51.132;17.062;2022-08-30T04:20:52;15.10;99.90
18281;DHT22;9266;51.132;17.062;2022-08-30T04:23:19;15.20;99.90
18281;DHT22;9266;51.132;17.062;2022-08-30T04:25:46;15.20;99.90
18281;DHT22;9266;51.132;17.062;2022-08-30T04:28:13;15.30;99.90
18281;DHT22;9266;51.132;17.062;2022-08-30T04:30:43;15.50;99.90
18281;DHT22;9266;51.132;17.062;2022-08-30T04:33:10;15.70;99.90
18281;DHT22;9266;51.132;17.062;2022-08-30T04:35:39;15.80;99.90
18281;DHT22;9266;51.132;17.062;2022-08-30T04:38:07;15.70;99.90
18281;DHT22;9266;51.132;17.062;2022-08-30T04:40:34;15.80;99.90
18281;DHT22;9266;51.132;17.062;2022-08-30T04:43:02;16.20;99.90
18281;DHT22;9266;51.132;17.062;2022-08-30T04:45:29;16.60;99.90
18281;DHT22;9266;51.132;17.062;2022-08-30T04:47:58;16.80;99.90
18281;DHT22;9266;51.132;17.062;2022-08-30T04:50:25;16.90;99.90
18281;DHT22;9266;51.132;17.062;2022-08-30T04:52:52;17.00;99.90
18281;DHT22;9266;51.132;17.062;2022-08-30T04:55:19;17.00;99.90
18281;DHT22;9266;51.132;17.062;2022-08-30T04:57:46;16.80;1.00
18281;DHT22;9266;51.132;17.062;2022-08-30T05:00:14;16.50;99.90
18281;DHT22;9266;51.132;17.062;2022-08-30T05:02:41;16.40;99.90
18281;DHT22;9266;51.132;17.062;2022-08-30T05:05:10;16.50;99.90
18281;DHT22;9266;51.132;17.062;2022-08-30T05:07:55;16.50;99.90
18281;DHT22;9266;51.132;17.062;2022-08-30T05:10:25;16.50;67.30
18281;DHT22;9266;51.132;17.062;2022-08-30T05:12:53;16.50;30.10
18281;DHT22;9266;51.132;17.062;2022-08-30T05:15:21;16.50;1.00
18281;DHT22;9266;51.132;17.062;2022-08-30T05:17:48;16.50;1.00
18281;DHT22;9266;51.132;17.062;2022-08-30T05:20:16;16.50;1.00
18281;DHT22;9266;51.132;17.062;2022-08-30T05:22:43;16.50;1.00
18281;DHT22;9266;51.132;17.062;2022-08-30T05:25:15;16.50;1.00
18281;DHT22;9266;51.132;17.062;2022-08-30T05:27:43;16.50;1.00
18281;DHT22;9266;51.132;17.062;2022-08-30T05:30:11;16.60;1.00
18281;DHT22;9266;51.132;17.062;2022-08-30T05:32:38;16.60;1.00
18281;DHT22;9266;51.132;17.062;2022-08-30T05:35:06;16.60;1.00
18281;DHT22;9266;51.132;17.062;2022-08-30T05:37:35;16.70;1.00
18281;DHT22;9266;51.132;17.062;2022-08-30T05:40:05;16.80;1.00
18281;DHT22;9266;51.132;17.062;2022-08-30T05:42:33;16.80;1.00
18281;DHT22;9266;51.132;17.062;2022-08-30T05:45:01;16.70;1.00
18281;DHT22;9266;51.132;17.062;2022-08-30T05:47:28;16.70;1.00
18281;DHT22;9266;51.132;17.062;2022-08-30T05:49:55;16.60;1.00
18281;DHT22;9266;51.132;17.062;2022-08-30T05:52:22;16.70;1.00
18281;DHT22;9266;51.132;17.062;2022-08-30T05:54:54;17.90;1.00
18281;DHT22;9266;51.132;17.062;2022-08-30T05:57:24;17.00;99.90
18281;DHT22;9266;51.132;17.062;2022-08-30T05:59:51;17.10;1.00
18281;DHT22;9266;51.132;17.062;2022-08-30T06:02:18;17.10;1.00
18281;DHT22;9266;51.132;17.062;2022-08-30T06:04:45;17.20;1.00
18281;DHT22;9266;51.132;17.062;2022-08-30T06:07:12;17.30;1.00
18281;DHT22;9266;51.132;17.062;2022-08-30T06:09:39;17.60;1.00
18281;DHT22;9266;51.132;17.062;2022-08-30T06:12:08;17.60;99.90
18281;DHT22;9266;51.132;17.062;2022-08-30T06:14:35;17.70;99.90
18281;DHT22;9266;51.132;17.062;2022-08-30T06:17:03;17.60;99.90
18281;DHT22;9266;51.132;17.062;2022-08-30T06:19:30;17.50;99.90
18281;DHT22;9266;51.132;17.062;2022-08-30T06:21:57;17.60;99.90
18281;DHT22;9266;51.132;17.062;2022-08-30T06:24:25;17.80;99.90
18281;DHT22;9266;51.132;17.062;2022-08-30T06:26:52;17.70;99.90
18281;DHT22;9266;51.132;17.062;2022-08-30T06:29:21;17.70;99.90
18281;DHT22;9266;51.132;17.062;2022-08-30T06:31:49;17.60;99.90
18281;DHT22;9266;51.132;17.062;2022-08-30T06:34:16;17.80;99.90
18281;DHT22;9266;51.132;17.062;2022-08-30T06:36:43;18.00;99.90
18281;DHT22;9266;51.132;17.062;2022-08-30T06:39:10;18.10;1.00
18281;DHT22;9266;51.132;17.062;2022-08-30T06:41:39;18.30;1.00
18281;DHT22;9266;51.132;17.062;2022-08-30T06:44:07;18.30;1.00
18281;DHT22;9266;51.132;17.062;2022-08-30T06:46:37;18.50;1.00
18281;DHT22;9266;51.132;17.062;2022-08-30T06:49:05;18.40;1.00
18281;DHT22;9266;51.132;17.062;2022-08-30T06:51:34;18.60;1.00
18281;DHT22;9266;51.132;17.062;2022-08-30T06:54:03;18.90;1.00
18281;DHT22;9266;51.132;17.062;2022-08-30T06:56:31;18.80;1.00
18281;DHT22;9266;51.132;17.062;2022-08-30T06:58:58;18.80;1.00
18281;DHT22;9266;51.132;17.062;2022-08-30T07:01:26;18.90;1.00
18281;DHT22;9266;51.132;17.062;2022-08-30T07:03:56;19.10;1.00
18281;DHT22;9266;51.132;17.062;2022-08-30T07:06:25;19.10;1.00
18281;DHT22;9266;51.132;17.062;2022-08-30T07:08:52;19.00;1.00
18281;DHT22;9266;51.132;17.062;2022-08-30T07:11:31;19.60;99.90
18281;DHT22;9266;51.132;17.062;2022-08-30T07:13:59;19.10;1.00
18281;DHT22;9266;51.132;17.062;2022-08-30T07:16:27;19.30;99.90
18281;DHT22;9266;51.132;17.062;2022-08-30T07:18:56;19.20;1.00
18281;DHT22;9266;51.132;17.062;2022-08-30T07:21:26;18.70;99.90
18281;DHT22;9266;51.132;17.062;2022-08-30T07:23:55;19.90;8.60
18281;DHT22;9266;51.132;17.062;2022-08-30T07:26:24;20.70;1.00
18281;DHT22;9266;51.132;17.062;2022-08-30T07:28:52;20.80;99.90
18281;DHT22;9266;51.132;17.062;2022-08-30T07:31:20;20.80;99.90
18281;DHT22;9266;51.132;17.062;2022-08-30T07:33:47;20.90;99.90
18281;DHT22;9266;51.132;17.062;2022-08-30T07:36:16;20.30;99.90
18281;DHT22;9266;51.132;17.062;2022-08-30T07:38:45;20.10;99.90
18281;DHT22;9266;51.132;17.062;2022-08-30T07:41:17;19.90;1.00
18281;DHT22;9266;51.132;17.062;2022-08-30T07:43:44;19.70;1.00
18281;DHT22;9266;51.132;17.062;2022-08-30T07:46:11;19.90;1.00
18281;DHT22;9266;51.132;17.062;2022-08-30T07:48:38;20.00;1.00
18281;DHT22;9266;51.132;17.062;2022-08-30T07:51:09;20.20;1.00
18281;DHT22;9266;51.132;17.062;2022-08-30T07:53:38;20.50;1.00
18281;DHT22;9266;51.132;17.062;2022-08-30T07:56:05;21.50;99.90
18281;DHT22;9266;51.132;17.062;2022-08-30T07:58:33;23.20;1.00
18281;DHT22;9266;51.132;17.062;2022-08-30T08:01:02;22.40;99.90
18281;DHT22;9266;51.132;17.062;2022-08-30T08:03:30;22.40;99.90
18281;DHT22;9266;51.132;17.062;2022-08-30T08:05:57;23.10;99.90
18281;DHT22;9266;51.132;17.062;2022-08-30T08:08:24;23.60;99.90
18281;DHT22;9266;51.132;17.062;2022-08-30T08:10:53;23.00;1.00
18281;DHT22;9266;51.132;17.062;2022-08-30T08:13:20;21.80;1.00
18281;DHT22;9266;51.132;17.062;2022-08-30T08:15:48;21.50;1.00
18281;DHT22;9266;51.132;17.062;2022-08-30T08:18:15;21.80;24.10
18281;DHT22;9266;51.132;17.062;2022-08-30T08:20:42;22.10;1.00
18281;DHT22;9266;51.132;17.062;2022-08-30T08:23:09;21.90;1.00
18281;DHT22;9266;51.132;17.062;2022-08-30T08:25:40;22.00;1.00
18281;DHT22;9266;51.132;17.062;2022-08-30T08:28:08;21.70;1.00
18281;DHT22;9266;51.132;17.062;2022-08-30T08:30:36;22.30;1.00
18281;DHT22;9266;51.132;17.062;2022-08-30T08:33:04;22.20;1.00
18281;DHT22;9266;51.132;17.062;2022-08-30T08:35:32;22.40;1.00
18281;DHT22;9266;51.132;17.062;2022-08-30T08:37:59;21.50;1.00
18281;DHT22;9266;51.132;17.062;2022-08-30T08:40:27;20.90;99.90
18281;DHT22;9266;51.132;17.062;2022-08-30T08:43:01;21.50;99.90
18281;DHT22;9266;51.132;17.062;2022-08-30T08:45:41;21.80;99.90
18281;DHT22;9266;51.132;17.062;2022-08-30T08:48:13;21.90;1.00
18281;DHT22;9266;51.132;17.062;2022-08-30T08:50:45;20.80;99.90
18281;DHT22;9266;51.132;17.062;2022-08-30T08:53:33;21.00;99.90
18281;DHT22;9266;51.132;17.062;2022-08-30T08:56:06;22.10;1.00
18281;DHT22;9266;51.132;17.062;2022-08-30T08:58:41;21.50;11.50
18281;DHT22;9266;51.132;17.062;2022-08-30T09:01:11;21.80;53.70
18281;DHT22;9266;51.132;17.062;2022-08-30T09:03:40;21.80;1.00
18281;DHT22;9266;51.132;17.062;2022-08-30T09:06:21;22.20;1.00
18281;DHT22;9266;51.132;17.062;2022-08-30T09:08:49;21.90;1.00
18281;DHT22;9266;51.132;17.062;2022-08-30T09:11:21;21.80;1.00
18281;DHT22;9266;51.132;17.062;2022-08-30T09:13:49;21.70;1.00
18281;DHT22;9266;51.132;17.062;2022-08-30T09:16:45;21.80;1.00
18281;DHT22;9266;51.132;17.062;2022-08-30T09:19:27;22.60;1.00
18281;DHT22;9266;51.132;17.062;2022-08-30T09:22:03;23.00;99.90
18281;DHT22;9266;51.132;17.062;2022-08-30T09:24:38;23.10;1.00
18281;DHT22;9266;51.132;17.062;2022-08-30T09:27:14;23.40;1.00
18281;DHT22;9266;51.132;17.062;2022-08-30T09:29:52;23.00;1.00
18281;DHT22;9266;51.132;17.062;2022-08-30T09:32:26;23.50;1.00
18281;DHT22;9266;51.132;17.062;2022-08-30T09:34:55;23.00;1.00
18281;DHT22;9266;51.132;17.062;2022-08-30T09:37:38;23.00;99.90
18281;DHT22;9266;51.132;17.062;2022-08-30T09:40:13;23.10;1.00
18281;DHT22;9266;51.132;17.062;2022-08-30T09:42:41;22.90;1.00
18281;DHT22;9266;51.132;17.062;2022-08-30T09:45:29;22.40;99.90
18281;DHT22;9266;51.132;17.062;2022-08-30T09:47:59;22.50;99.90
18281;DHT22;9266;51.132;17.062;2022-08-30T09:50:29;22.40;99.90
18281;DHT22;9266;51.132;17.062;2022-08-30T09:53:03;21.90;99.90
18281;DHT22;9266;51.132;17.062;2022-08-30T09:55:43;22.00;1.00
18281;DHT22;9266;51.132;17.062;2022-08-30T09:58:20;23.90;1.00
18281;DHT22;9266;51.132;17.062;2022-08-30T10:00:54;23.10;1.00
18281;DHT22;9266;51.132;17.062;2022-08-30T10:03:29;23.40;99.90
18281;DHT22;9266;51.132;17.062;2022-08-30T10:06:05;22.90;94.10
18281;DHT22;9266;51.132;17.062;2022-08-30T10:08:44;22.70;19.00
18281;DHT22;9266;51.132;17.062;2022-08-30T10:11:19;22.80;1.00
18281;DHT22;9266;51.132;17.062;2022-08-30T10:14:07;22.10;93.90
18281;DHT22;9266;51.132;17.062;2022-08-30T10:16:48;21.80;99.90
18281;DHT22;9266;51.132;17.062;2022-08-30T10:19:30;22.00;99.90
18281;DHT22;9266;51.132;17.062;2022-08-30T10:22:03;21.80;99.90
18281;DHT22;9266;51.132;17.062;2022-08-30T10:24:35;21.80;99.90
18281;DHT22;9266;51.132;17.062;2022-08-30T10:27:06;21.80;99.90
18281;DHT22;9266;51.132;17.062;2022-08-30T10:29:40;21.70;99.90
18281;DHT22;9266;51.132;17.062;2022-08-30T10:32:14;21.90;99.90
18281;DHT22;9266;51.132;17.062;2022-08-30T10:34:49;22.00;99.90
18281;DHT22;9266;51.132;17.062;2022-08-30T10:37:22;22.30;87.10
18281;DHT22;9266;51.132;17.062;2022-08-30T10:39:52;22.50;1.00
18281;DHT22;9266;51.132;17.062;2022-08-30T10:42:21;22.20;1.00
18281;DHT22;9266;51.132;17.062;2022-08-30T10:44:54;22.50;1.00
18281;DHT22;9266;51.132;17.062;2022-08-30T10:47:29;22.70;1.00
18281;DHT22;9266;51.132;17.062;2022-08-30T10:50:08;23.10;1.00
18281;DHT22;9266;51.132;17.062;2022-08-30T10:52:41;23.40;1.00
18281;DHT22;9266;51.132;17.062;2022-08-30T10:55:16;23.40;1.00
18281;DHT22;9266;51.132;17.062;2022-08-30T10:57:46;23.40;1.00
18281;DHT22;9266;51.132;17.062;2022-08-30T11:00:21;23.30;1.00
18281;DHT22;9266;51.132;17.062;2022-08-30T11:06:17;23.30;1.00
18281;DHT22;9266;51.132;17.062;2022-08-30T11:09:06;23.90;1.00
18281;DHT22;9266;51.132;17.062;2022-08-30T11:11:45;24.40;1.00
18281;DHT22;9266;51.132;17.062;2022-08-30T11:14:17;24.20;1.00
18281;DHT22;9266;51.132;17.062;2022-08-30T11:16:47;23.60;1.00
18281;DHT22;9266;51.132;17.062;2022-08-30T11:19:18;22.90;99.90
18281;DHT22;9266;51.132;17.062;2022-08-30T11:21:49;22.40;99.90
18281;DHT22;9266;51.132;17.062;2022-08-30T11:24:18;22.10;99.90
18281;DHT22;9266;51.132;17.062;2022-08-30T11:26:56;22.20;99.90
18281;DHT22;9266;51.132;17.062;2022-08-30T11:29:33;22.30;99.90
18281;DHT22;9266;51.132;17.062;2022-08-30T11:32:20;22.30;99.90
18281;DHT22;9266;51.132;17.062;2022-08-30T11:34:56;22.20;99.90
18281;DHT22;9266;51.132;17.062;2022-08-30T11:37:36;22.30;99.90
18281;DHT22;9266;51.132;17.062;2022-08-30T11:40:09;23.60;99.90
18281;DHT22;9266;51.132;17.062;2022-08-30T11:42:40;22.90;99.90
18281;DHT22;9266;51.132;17.062;2022-08-30T11:45:42;23.00;99.90
18281;DHT22;9266;51.132;17.062;2022-08-30T11:48:39;23.50;99.90
18281;DHT22;9266;51.132;17.062;2022-08-30T11:54:12;23.20;99.90
18281;DHT22;9266;51.132;17.062;2022-08-30T11:56:49;22.60;99.90
18281;DHT22;9266;51.132;17.062;2022-08-30T11:59:23;22.60;99.90
18281;DHT22;9266;51.132;17.062;2022-08-30T12:01:52;22.50;91.30
18281;DHT22;9266;51.132;17.062;2022-08-30T12:04:41;22.40;28.60
18281;DHT22;9266;51.132;17.062;2022-08-30T12:07:10;22.10;27.60
18281;DHT22;9266;51.132;17.062;2022-08-30T12:10:02;22.00;1.00
18281;DHT22;9266;51.132;17.062;2022-08-30T12:12:51;22.30;17.90
18281;DHT22;9266;51.132;17.062;2022-08-30T12:15:52;22.30;1.00
18281;DHT22;9266;51.132;17.062;2022-08-30T12:18:31;22.60;1.00
18281;DHT22;9266;51.132;17.062;2022-08-30T12:21:13;22.80;1.00
18281;DHT22;9266;51.132;17.062;2022-08-30T12:23:49;23.10;1.00
18281;DHT22;9266;51.132;17.062;2022-08-30T12:26:28;23.20;1.00
18281;DHT22;9266;51.132;17.062;2022-08-30T12:29:14;22.90;99.90
18281;DHT22;9266;51.132;17.062;2022-08-30T12:31:45;22.90;99.90
18281;DHT22;9266;51.132;17.062;2022-08-30T12:34:22;22.80;1.00
18281;DHT22;9266;51.132;17.062;2022-08-30T12:36:55;22.70;1.00
18281;DHT22;9266;51.132;17.062;2022-08-30T12:39:26;22.70;99.90
18281;DHT22;9266;51.132;17.062;2022-08-30T12:41:55;22.80;99.90
18281;DHT22;9266;51.132;17.062;2022-08-30T12:44:25;22.70;99.90
18281;DHT22;9266;51.132;17.062;2022-08-30T12:46:56;23.00;99.90
18281;DHT22;9266;51.132;17.062;2022-08-30T12:49:27;23.10;99.90
18281;DHT22;9266;51.132;17.062;2022-08-30T12:51:56;23.20;1.00
18281;DHT22;9266;51.132;17.062;2022-08-30T12:54:41;23.60;99.90
18281;DHT22;9266;51.132;17.062;2022-08-30T12:57:10;23.60;99.90
18281;DHT22;9266;51.132;17.062;2022-08-30T12:59:46;23.30;99.90
18281;DHT22;9266;51.132;17.062;2022-08-30T13:02:18;23.30;99.90
18281;DHT22;9266;51.132;17.062;2022-08-30T13:04:46;23.40;1.40
18281;DHT22;9266;51.132;17.062;2022-08-30T13:07:26;23.20;1.00
18281;DHT22;9266;51.132;17.062;2022-08-30T13:10:07;22.80;1.00
18281;DHT22;9266;51.132;17.062;2022-08-30T13:12:36;22.30;1.00
18281;DHT22;9266;51.132;17.062;2022-08-30T13:15:15;22.20;1.00
18281;DHT22;9266;51.132;17.062;2022-08-30T13:17:42;22.30;1.00
18281;DHT22;9266;51.132;17.062;2022-08-30T13:20:22;22.60;1.00
18281;DHT22;9266;51.132;17.062;2022-08-30T13:23:06;22.80;1.00
18281;DHT22;9266;51.132;17.062;2022-08-30T13:25:34;23.00;1.00
18281;DHT22;9266;51.132;17.062;2022-08-30T13:28:05;23.10;1.00
18281;DHT22;9266;51.132;17.062;2022-08-30T13:30:33;23.20;1.00
18281;DHT22;9266;51.132;17.062;2022-08-30T13:33:00;24.20;1.00
18281;DHT22;9266;51.132;17.062;2022-08-30T13:35:28;23.60;29.50
18281;DHT22;9266;51.132;17.062;2022-08-30T13:37:55;23.60;1.00
18281;DHT22;9266;51.132;17.062;2022-08-30T13:40:23;23.70;1.00
18281;DHT22;9266;51.132;17.062;2022-08-30T13:42:50;23.80;1.00
18281;DHT22;9266;51.132;17.062;2022-08-30T13:45:19;23.60;1.00
18281;DHT22;9266;51.132;17.062;2022-08-30T13:47:47;23.30;1.00
18281;DHT22;9266;51.132;17.062;2022-08-30T13:50:15;23.40;1.00
18281;DHT22;9266;51.132;17.062;2022-08-30T13:52:45;23.60;1.00
18281;DHT22;9266;51.132;17.062;2022-08-30T13:55:12;23.60;1.00
18281;DHT22;9266;51.132;17.062;2022-08-30T13:57:39;23.70;1.00
18281;DHT22;9266;51.132;17.062;2022-08-30T14:00:10;23.40;1.00
18281;DHT22;9266;51.132;17.062;2022-08-30T14:02:41;23.30;1.00
18281;DHT22;9266;51.132;17.062;2022-08-30T14:05:08;23.40;1.00
18281;DHT22;9266;51.132;17.062;2022-08-30T14:07:35;23.40;1.00
18281;DHT22;9266;51.132;17.062;2022-08-30T14:10:03;23.20;1.00
18281;DHT22;9266;51.132;17.062;2022-08-30T14:12:31;23.10;1.00
18281;DHT22;9266;51.132;17.062;2022-08-30T14:14:58;23.20;1.00
18281;DHT22;9266;51.132;17.062;2022-08-30T14:17:46;23.40;1.00
18281;DHT22;9266;51.132;17.062;2022-08-30T14:20:28;23.60;1.00
18281;DHT22;9266;51.132;17.062;2022-08-30T14:22:55;23.40;1.00
18281;DHT22;9266;51.132;17.062;2022-08-30T14:25:22;23.30;1.00
18281;DHT22;9266;51.132;17.062;2022-08-30T14:27:56;23.40;1.00
18281;DHT22;9266;51.132;17.062;2022-08-30T14:30:31;23.40;1.00
18281;DHT22;9266;51.132;17.062;2022-08-30T14:32:59;23.60;1.00
18281;DHT22;9266;51.132;17.062;2022-08-30T14:35:27;23.70;1.00
18281;DHT22;9266;51.132;17.062;2022-08-30T14:37:54;23.90;1.00
18281;DHT22;9266;51.132;17.062;2022-08-30T14:40:21;24.10;1.00
18281;DHT22;9266;51.132;17.062;2022-08-30T14:42:58;24.20;1.00
18281;DHT22;9266;51.132;17.062;2022-08-30T14:45:30;24.30;1.00
18281;DHT22;9266;51.132;17.062;2022-08-30T14:48:00;24.00;1.00
18281;DHT22;9266;51.132;17.062;2022-08-30T14:50:34;23.90;1.00
18281;DHT22;9266;51.132;17.062;2022-08-30T14:53:01;24.10;1.00
18281;DHT22;9266;51.132;17.062;2022-08-30T14:55:28;24.20;1.00
18281;DHT22;9266;51.132;17.062;2022-08-30T14:57:56;24.30;1.00
18281;DHT22;9266;51.132;17.062;2022-08-30T15:00:26;24.00;1.00
18281;DHT22;9266;51.132;17.062;2022-08-30T15:02:56;22.10;1.00
18281;DHT22;9266;51.132;17.062;2022-08-30T15:05:25;23.80;1.00
18281;DHT22;9266;51.132;17.062;2022-08-30T15:07:52;23.80;99.90
18281;DHT22;9266;51.132;17.062;2022-08-30T15:10:20;23.90;99.90
18281;DHT22;9266;51.132;17.062;2022-08-30T15:12:48;24.20;1.00
18281;DHT22;9266;51.132;17.062;2022-08-30T15:15:17;24.40;1.00
18281;DHT22;9266;51.132;17.062;2022-08-30T15:17:45;24.00;1.00
18281;DHT22;9266;51.132;17.062;2022-08-30T15:20:13;23.60;99.90
18281;DHT22;9266;51.132;17.062;2022-08-30T15:22:45;23.20;99.90
18281;DHT22;9266;51.132;17.062;2022-08-30T15:25:12;22.80;99.90
18281;DHT22;9266;51.132;17.062;2022-08-30T15:27:39;22.70;99.90
18281;DHT22;9266;51.132;17.062;2022-08-30T15:30:07;22.40;99.90
18281;DHT22;9266;51.132;17.062;2022-08-30T15:32:35;22.40;99.90
18281;DHT22;9266;51.132;17.062;2022-08-30T15:35:02;22.40;99.90
18281;DHT22;9266;51.132;17.062;2022-08-30T15:37:29;22.30;99.90
18281;DHT22;9266;51.132;17.062;2022-08-30T15:39:58;22.20;99.90
18281;DHT22;9266;51.132;17.062;2022-08-30T15:42:25;22.10;99.90
18281;DHT22;9266;51.132;17.062;2022-08-30T15:44:54;22.10;99.90
18281;DHT22;9266;51.132;17.062;2022-08-30T15:47:22;21.80;99.90
18281;DHT22;9266;51.132;17.062;2022-08-30T15:49:53;22.10;99.90
18281;DHT22;9266;51.132;17.062;2022-08-30T15:52:29;22.20;99.90
18281;DHT22;9266;51.132;17.062;2022-08-30T15:54:58;22.10;99.90
18281;DHT22;9266;51.132;17.062;2022-08-30T15:57:25;22.20;99.90
18281;DHT22;9266;51.132;17.062;2022-08-30T15:59:53;22.20;99.90
18281;DHT22;9266;51.132;17.062;2022-08-30T16:02:21;22.10;99.90
18281;DHT22;9266;51.132;17.062;2022-08-30T16:04:48;22.10;99.90